Time;durP1;ratioP1;P1;durP2;ratioP2;P2;SDS_P1;SDS_P2;PMS_P1;PMS_P2;Temp;Humidity;BMP_temperature;BMP_pressure;BME280_temperature;BME280_humidity;BME280_pressure;Samples;Min_cycle;Max_cycle;Signal;HPM_P1;HPM_P2
2022/02/14 00:00:33;;;;;;;3.05;0.50;;;26.80;94.00;;;;;;4972675;28;20073;-74
2022/02/14 00:03:00;;;;;;;4.22;0.57;;;26.90;94.20;;;;;;4974814;28;20027;-76
2022/02/14 00:05:28;;;;;;;11.38;1.55;;;27.20;93.80;;;;;;4975192;28;20504;-76
2022/02/14 00:07:57;;;;;;;5.65;0.63;;;27.40;93.00;;;;;;4977740;28;20027;-75
2022/02/14 00:10:24;;;;;;;5.45;0.80;;;27.60;94.30;;;;;;4985775;28;20022;-76
2022/02/14 00:12:52;;;;;;;5.68;1.10;;;27.70;93.30;;;;;;4989285;28;20026;-77
2022/02/14 00:15:19;;;;;;;6.82;0.88;;;27.60;92.70;;;;;;4990429;28;20094;-80
2022/02/14 00:17:47;;;;;;;6.05;1.33;;;27.70;93.70;;;;;;4979961;28;20034;-81
2022/02/14 00:20:15;;;;;;;7.50;1.70;;;27.90;92.60;;;;;;4981341;28;20041;-85
2022/02/14 00:22:42;;;;;;;3.00;1.10;;;28.00;92.70;;;;;;4985719;28;20432;-78
2022/02/14 00:25:10;;;;;;;6.32;1.40;;;27.80;92.80;;;;;;4978599;28;20057;-81
2022/02/14 00:27:38;;;;;;;5.03;1.02;;;27.40;92.90;;;;;;4982209;28;20029;-79
2022/02/14 00:30:06;;;;;;;5.95;1.05;;;27.40;93.40;;;;;;4983740;28;20031;-77
2022/02/14 00:32:35;;;;;;;4.00;0.60;;;27.50;93.40;;;;;;4983545;28;20105;-79
2022/02/14 00:35:02;;;;;;;4.72;0.90;;;27.30;93.40;;;;;;4989962;28;20073;-76
2022/02/14 00:37:30;;;;;;;5.28;0.50;;;27.20;94.20;;;;;;4972130;28;20126;-75
2022/02/14 00:39:57;;;;;;;2.30;0.57;;;27.40;93.60;;;;;;4976680;28;20023;-74
2022/02/14 00:42:25;;;;;;;2.88;0.60;;;27.60;94.30;;;;;;4984094;28;20076;-74
2022/02/14 00:44:52;;;;;;;6.38;1.00;;;28.10;93.80;;;;;;4988157;28;20143;-76
2022/02/14 00:47:19;;;;;;;5.07;1.25;;;28.50;93.00;;;;;;4983841;28;20094;-80
2022/02/14 00:49:47;;;;;;;11.35;0.93;;;28.60;93.30;;;;;;4984702;28;20057;-79
2022/02/14 00:52:14;;;;;;;5.47;1.60;;;28.80;92.90;;;;;;4986330;28;20409;-83
2022/02/14 00:54:43;;;;;;;5.30;1.20;;;28.90;92.50;;;;;;4991269;28;20054;-78
2022/02/14 00:57:11;;;;;;;7.43;1.48;;;28.80;92.60;;;;;;4981618;28;20031;-76
2022/02/14 00:59:38;;;;;;;5.05;1.00;;;28.70;92.40;;;;;;4980923;28;20026;-78
2022/02/14 01:02:05;;;;;;;6.82;0.85;;;29.00;92.50;;;;;;4977822;28;20038;-75
2022/02/14 01:04:33;;;;;;;3.38;0.85;;;29.50;92.50;;;;;;4981854;28;20119;-77
2022/02/14 01:07:00;;;;;;;2.58;0.65;;;29.50;91.40;;;;;;4986657;28;20019;-79
2022/02/14 01:09:27;;;;;;;3.50;0.90;;;29.40;91.10;;;;;;4980756;28;20038;-78
2022/02/14 01:11:55;;;;;;;7.03;0.73;;;29.50;91.90;;;;;;4981504;28;20092;-79
2022/02/14 01:14:22;;;;;;;6.15;2.08;;;30.00;91.70;;;;;;4962172;28;20022;-78
2022/02/14 01:16:50;;;;;;;3.38;0.60;;;30.00;91.00;;;;;;4978889;28;20030;-80
2022/02/14 01:19:17;;;;;;;6.30;1.33;;;29.90;90.80;;;;;;4977958;28;20037;-78
2022/02/14 01:21:44;;;;;;;4.13;0.98;;;30.00;91.40;;;;;;4977606;28;20039;-77
2022/02/14 01:24:12;;;;;;;3.42;0.80;;;29.90;90.80;;;;;;4986410;28;20394;-83
2022/02/14 01:26:42;;;;;;;6.03;1.70;;;29.80;91.00;;;;;;4967167;28;20034;-82
2022/02/14 01:29:10;;;;;;;5.38;1.27;;;29.80;91.50;;;;;;4980554;28;20025;-79
2022/02/14 01:31:37;;;;;;;5.35;0.90;;;30.20;90.80;;;;;;4982014;28;20468;-78
2022/02/14 01:34:04;;;;;;;2.53;0.52;;;30.30;90.40;;;;;;4984216;28;20038;-76
2022/02/14 01:36:32;;;;;;;6.45;0.60;;;30.30;90.50;;;;;;4977272;28;20546;-77
2022/02/14 01:38:59;;;;;;;4.68;1.02;;;30.50;90.60;;;;;;4969676;28;20034;-76
2022/02/14 01:41:27;;;;;;;2.97;0.63;;;30.70;90.40;;;;;;4983778;28;20026;-83
2022/02/14 01:43:54;;;;;;;5.50;1.23;;;30.90;89.90;;;;;;4984391;28;20512;-82
2022/02/14 01:46:21;;;;;;;6.03;0.75;;;31.30;90.00;;;;;;4987492;28;20034;-78
2022/02/14 01:48:49;;;;;;;4.38;1.10;;;31.30;88.60;;;;;;4985717;28;20034;-80
2022/02/14 01:51:17;;;;;;;8.27;1.27;;;31.30;88.60;;;;;;4991098;28;20036;-79
2022/02/14 01:53:44;;;;;;;4.38;0.93;;;31.30;89.60;;;;;;4985283;28;20382;-83
2022/02/14 01:56:14;;;;;;;2.35;0.50;;;31.00;87.60;;;;;;4983664;28;20442;-75
2022/02/14 01:58:42;;;;;;;4.95;1.10;;;30.90;89.00;;;;;;4983314;28;20030;-80
2022/02/14 02:01:09;;;;;;;5.68;0.98;;;31.20;88.40;;;;;;4987906;28;20679;-79
2022/02/14 02:03:36;;;;;;;2.97;0.80;;;31.10;88.50;;;;;;4984695;28;20038;-77
2022/02/14 02:06:04;;;;;;;4.82;0.77;;;31.00;88.50;;;;;;4984606;28;20042;-83
2022/02/14 02:08:32;;;;;;;4.97;1.35;;;31.00;88.40;;;;;;4984077;28;20032;-77
2022/02/14 02:12:22;;;;;;;4.70;0.68;;;31.60;88.90;;;;;;4984959;28;20114;-79
2022/02/14 02:13:52;;;;;;;3.15;0.65;;;31.80;88.10;;;;;;4981187;28;20422;-76
2022/02/14 02:16:20;;;;;;;7.95;0.50;;;31.40;87.60;;;;;;4977146;28;20034;-76
2022/02/14 02:18:47;;;;;;;5.10;0.82;;;31.60;86.70;;;;;;4986314;28;20046;-79
2022/02/14 02:21:15;;;;;;;4.22;1.02;;;31.30;86.80;;;;;;4988373;28;20538;-77
2022/02/14 02:23:44;;;;;;;3.53;0.90;;;30.70;86.60;;;;;;4989470;28;20015;-78
2022/02/14 02:26:11;;;;;;;7.53;0.98;;;30.60;86.80;;;;;;4950350;28;20034;-77
2022/02/14 02:28:39;;;;;;;2.53;0.60;;;30.10;87.90;;;;;;4981853;28;20534;-77
2022/02/14 02:31:07;;;;;;;6.85;1.20;;;29.90;88.30;;;;;;4982555;28;20050;-78
2022/02/14 02:33:35;;;;;;;5.00;1.02;;;30.10;89.30;;;;;;4980013;28;20445;-76
2022/02/14 02:36:02;;;;;;;3.00;0.85;;;30.90;89.10;;;;;;4982708;28;20100;-77
2022/02/14 02:38:29;;;;;;;4.10;0.80;;;31.30;86.40;;;;;;4985153;28;20026;-77
2022/02/14 02:40:57;;;;;;;5.82;0.60;;;31.50;86.20;;;;;;4984037;28;20099;-77
2022/02/14 02:43:24;;;;;;;2.33;0.93;;;31.50;86.70;;;;;;4989943;28;20515;-76
2022/02/14 02:45:59;;;;;;;6.25;0.82;;;31.20;87.80;;;;;;4990817;28;20093;-77
2022/02/14 02:48:26;;;;;;;3.15;0.70;;;31.10;87.40;;;;;;4979746;28;20038;-77
2022/02/14 02:51:03;;;;;;;3.97;0.60;;;31.70;86.80;;;;;;4984858;28;20497;-77
2022/02/14 02:53:32;;;;;;;6.03;1.55;;;32.00;83.20;;;;;;4973167;28;20379;-75
2022/02/14 02:56:00;;;;;;;5.90;0.65;;;32.20;85.20;;;;;;4988193;28;20133;-77
2022/02/14 02:58:28;;;;;;;6.18;0.75;;;32.30;82.50;;;;;;4989374;28;20022;-77
2022/02/14 03:00:55;;;;;;;4.32;0.70;;;31.90;82.90;;;;;;4987638;28;20030;-75
2022/02/14 03:03:23;;;;;;;2.80;0.45;;;31.80;83.80;;;;;;4982732;28;20493;-79
2022/02/14 03:05:50;;;;;;;6.72;1.33;;;32.30;85.40;;;;;;4979515;28;20038;-80
2022/02/14 03:08:17;;;;;;;4.55;0.60;;;32.60;83.30;;;;;;4980926;28;20046;-80
2022/02/14 03:10:45;;;;;;;6.43;0.65;;;32.60;84.30;;;;;;4992463;28;20058;-82
2022/02/14 03:13:12;;;;;;;1.55;1.02;;;32.10;84.30;;;;;;4984937;28;20050;-74
2022/02/14 03:15:39;;;;;;;4.45;0.63;;;31.90;83.70;;;;;;4981439;28;20022;-76
2022/02/14 03:18:07;;;;;;;3.30;0.57;;;31.40;84.30;;;;;;4977569;28;20038;-77
2022/02/14 03:20:36;;;;;;;3.60;0.63;;;30.90;83.30;;;;;;4987578;28;20050;-79
2022/02/14 03:23:03;;;;;;;4.85;0.75;;;31.00;85.50;;;;;;4987951;28;20473;-75
2022/02/14 03:25:31;;;;;;;2.17;0.50;;;31.70;85.80;;;;;;4979651;28;20068;-76
2022/02/14 03:27:59;;;;;;;1.88;0.60;;;32.30;86.30;;;;;;4982562;28;20497;-76
2022/02/14 03:30:26;;;;;;;4.88;0.88;;;33.00;83.90;;;;;;4984529;28;20537;-77
2022/02/14 03:32:53;;;;;;;6.07;0.98;;;33.00;81.60;;;;;;4982275;28;20027;-80
2022/02/14 03:35:21;;;;;;;2.55;0.60;;;33.20;82.70;;;;;;4979561;28;20416;-77
2022/02/14 03:37:51;;;;;;;5.93;0.80;;;32.70;81.50;;;;;;4984325;28;20022;-77
2022/02/14 03:40:18;;;;;;;7.45;1.33;;;32.70;84.50;;;;;;4974879;28;20030;-78
2022/02/14 03:42:46;;;;;;;7.60;1.77;;;32.80;80.20;;;;;;4986269;28;20030;-77
2022/02/14 03:45:13;;;;;;;3.35;0.60;;;32.70;80.90;;;;;;4980517;28;20039;-76
2022/02/14 03:47:40;;;;;;;3.17;0.50;;;32.00;80.60;;;;;;4986654;28;20029;-76
2022/02/14 03:50:08;;;;;;;3.10;0.50;;;31.60;82.90;;;;;;4984000;28;20090;-76
2022/02/14 03:52:35;;;;;;;5.38;0.73;;;31.20;83.30;;;;;;4980364;28;20022;-77
2022/02/14 03:55:03;;;;;;;2.67;0.45;;;31.10;84.00;;;;;;4979879;28;20046;-78
2022/02/14 03:57:30;;;;;;;3.83;0.68;;;30.80;84.20;;;;;;4976193;28;20031;-79
2022/02/14 03:59:58;;;;;;;5.45;0.80;;;30.80;84.00;;;;;;4985863;28;20497;-79
2022/02/14 04:02:29;;;;;;;6.15;0.60;;;31.40;83.50;;;;;;4977461;28;20026;-79
2022/02/14 04:04:56;;;;;;;2.97;0.60;;;32.10;83.40;;;;;;4984007;28;20043;-77
2022/02/14 04:07:24;;;;;;;2.75;0.60;;;32.50;81.80;;;;;;4975863;28;20627;-77
2022/02/14 04:09:51;;;;;;;2.90;1.13;;;33.10;82.90;;;;;;4983972;28;20030;-77
2022/02/14 04:12:18;;;;;;;4.55;1.17;;;33.50;78.70;;;;;;4981188;28;20101;-77
2022/02/14 04:14:46;;;;;;;3.47;0.77;;;33.60;78.00;;;;;;4991714;28;20647;-76
2022/02/14 04:17:13;;;;;;;5.50;0.88;;;33.30;79.10;;;;;;4988839;28;20349;-77
2022/02/14 04:19:41;;;;;;;4.05;0.60;;;33.40;80.20;;;;;;4988895;28;20061;-77
2022/02/14 04:22:08;;;;;;;1.67;0.50;;;33.40;80.30;;;;;;4980689;28;20046;-76
2022/02/14 04:24:36;;;;;;;2.72;0.60;;;33.50;79.90;;;;;;4973680;28;20061;-77
2022/02/14 04:27:03;;;;;;;2.17;0.45;;;33.10;79.60;;;;;;4985078;28;20734;-77
2022/02/14 04:29:30;;;;;;;5.53;1.10;;;33.20;79.40;;;;;;4972753;28;20650;-77
2022/02/14 04:31:58;;;;;;;4.78;0.52;;;33.30;79.20;;;;;;4982181;28;20029;-77
2022/02/14 04:34:25;;;;;;;3.88;0.80;;;33.60;80.60;;;;;;4988880;28;20447;-76
2022/02/14 04:36:53;;;;;;;2.58;0.80;;;33.90;80.40;;;;;;4977169;28;20038;-76
2022/02/14 04:39:21;;;;;;;2.72;0.75;;;34.20;80.00;;;;;;4989582;28;20029;-76
2022/02/14 04:41:48;;;;;;;4.32;0.75;;;34.20;77.00;;;;;;4979251;28;20093;-77
2022/02/14 04:44:16;;;;;;;3.63;0.43;;;33.80;76.40;;;;;;4987593;28;20117;-77
2022/02/14 04:46:44;;;;;;;2.63;0.40;;;33.00;76.80;;;;;;4989512;28;20030;-76
2022/02/14 04:49:12;;;;;;;5.28;0.90;;;32.60;77.70;;;;;;4983631;28;20054;-77
2022/02/14 04:51:39;;;;;;;6.70;0.77;;;32.20;78.30;;;;;;4982571;28;20033;-78
2022/02/14 04:54:06;;;;;;;3.00;0.55;;;31.90;78.80;;;;;;4980525;28;20054;-79
2022/02/14 04:56:34;;;;;;;3.45;0.52;;;31.80;80.40;;;;;;4980548;28;20041;-75
2022/02/14 04:59:01;;;;;;;2.85;0.85;;;31.60;80.10;;;;;;4979993;28;20027;-78
2022/02/14 05:01:29;;;;;;;2.42;0.68;;;31.40;80.60;;;;;;4977687;28;20315;-76
2022/02/14 05:03:56;;;;;;;2.78;0.75;;;31.30;81.50;;;;;;4982352;28;20049;-79
2022/02/14 05:06:23;;;;;;;1.20;0.50;;;31.20;80.60;;;;;;4988995;28;20037;-77
2022/02/14 05:08:50;;;;;;;8.65;0.80;;;31.20;80.80;;;;;;4971084;28;20165;-76
2022/02/14 05:11:18;;;;;;;7.05;0.98;;;31.20;80.20;;;;;;4988200;28;20471;-78
2022/02/14 05:13:46;;;;;;;2.95;0.40;;;31.10;80.70;;;;;;4994717;28;20071;-77
2022/02/14 05:16:14;;;;;;;3.90;0.98;;;31.20;81.90;;;;;;4996834;28;20030;-76
2022/02/14 05:18:41;;;;;;;2.78;0.40;;;31.20;81.00;;;;;;4989858;28;20037;-75
2022/02/14 05:21:09;;;;;;;3.35;0.57;;;31.20;81.70;;;;;;4990503;28;20631;-78
2022/02/14 05:23:36;;;;;;;2.58;0.82;;;31.10;81.40;;;;;;4992806;28;20101;-76
2022/02/14 05:26:03;;;;;;;4.72;0.70;;;31.00;84.90;;;;;;4980379;28;20796;-78
2022/02/14 05:28:31;;;;;;;8.98;0.95;;;31.10;85.50;;;;;;4994491;28;20559;-77
2022/02/14 05:30:58;;;;;;;4.10;1.30;;;30.90;86.60;;;;;;4994201;28;20035;-74
2022/02/14 05:33:25;;;;;;;6.70;1.13;;;30.60;86.70;;;;;;4989204;28;20043;-76
2022/02/14 05:35:53;;;;;;;3.22;0.63;;;30.30;87.50;;;;;;4996757;28;20019;-78
2022/02/14 05:38:20;;;;;;;5.85;1.08;;;30.10;87.90;;;;;;4988821;28;20031;-77
2022/02/14 05:40:48;;;;;;;8.27;1.25;;;30.00;88.40;;;;;;5000697;28;20489;-77
2022/02/14 05:43:16;;;;;;;6.63;1.05;;;30.00;89.00;;;;;;5002916;28;20030;-76
2022/02/14 05:45:43;;;;;;;7.55;1.33;;;30.00;88.40;;;;;;4987521;28;20054;-77
2022/02/14 05:48:11;;;;;;;7.45;1.85;;;29.90;88.90;;;;;;4984403;28;20378;-74
2022/02/14 05:50:38;;;;;;;2.97;0.77;;;29.80;89.00;;;;;;4993038;28;20031;-76
2022/02/14 05:53:05;;;;;;;6.35;1.00;;;29.60;89.20;;;;;;4995476;28;20481;-75
2022/02/14 05:55:33;;;;;;;3.95;0.60;;;29.30;90.00;;;;;;4989973;28;20062;-76
2022/02/14 05:58:00;;;;;;;7.50;1.25;;;29.30;90.00;;;;;;4985696;28;20022;-76
2022/02/14 06:00:27;;;;;;;6.68;1.13;;;29.30;89.60;;;;;;4994641;28;20065;-75
2022/02/14 06:02:55;;;;;;;3.63;1.10;;;29.30;89.80;;;;;;4991028;28;20034;-76
2022/02/14 06:05:22;;;;;;;7.97;2.10;;;29.20;90.20;;;;;;4985142;28;20626;-76
2022/02/14 06:07:50;;;;;;;4.03;1.38;;;29.20;89.90;;;;;;4980234;28;20101;-78
2022/02/14 06:10:17;;;;;;;6.25;1.73;;;29.40;90.10;;;;;;4986516;28;20097;-77
2022/02/14 06:12:45;;;;;;;3.30;0.95;;;29.80;89.60;;;;;;4989551;28;20057;-78
2022/02/14 06:15:12;;;;;;;4.22;0.82;;;30.00;88.40;;;;;;4986180;28;20112;-78
2022/02/14 06:17:39;;;;;;;5.00;0.73;;;30.20;88.40;;;;;;4984032;28;20022;-77
2022/02/14 06:20:07;;;;;;;7.53;0.73;;;30.10;88.00;;;;;;4987761;28;20626;-77
2022/02/14 06:22:35;;;;;;;11.25;1.60;;;30.10;88.50;;;;;;4982795;28;20034;-75
2022/02/14 06:25:02;;;;;;;4.10;1.00;;;30.10;89.10;;;;;;4979884;28;20141;-77
2022/02/14 06:27:29;;;;;;;8.15;1.08;;;30.20;88.50;;;;;;4983101;28;20089;-76
2022/02/14 06:29:57;;;;;;;9.55;1.50;;;30.10;88.40;;;;;;4990661;28;20038;-76
2022/02/14 06:32:25;;;;;;;5.53;1.02;;;29.80;89.40;;;;;;4976057;28;20071;-76
2022/02/14 06:34:52;;;;;;;6.28;1.73;;;29.30;89.60;;;;;;4980770;28;20026;-76
2022/02/14 06:37:20;;;;;;;7.85;0.98;;;29.20;90.20;;;;;;4985151;28;20046;-76
2022/02/14 06:39:47;;;;;;;5.70;1.40;;;29.30;90.00;;;;;;4990936;28;20054;-76
2022/02/14 06:42:15;;;;;;;7.72;1.33;;;29.40;89.90;;;;;;4987863;28;20045;-76
2022/02/14 06:44:42;;;;;;;7.22;1.23;;;29.40;89.80;;;;;;4986973;28;20030;-76
2022/02/14 06:47:10;;;;;;;5.90;2.03;;;29.30;90.10;;;;;;4972838;28;20113;-78
2022/02/14 06:49:37;;;;;;;4.15;1.17;;;29.30;90.10;;;;;;4987610;28;20404;-77
2022/02/14 06:52:05;;;;;;;3.50;0.80;;;29.10;89.70;;;;;;4978892;28;20034;-79
2022/02/14 06:54:32;;;;;;;9.48;1.30;;;28.80;89.90;;;;;;4991050;28;20553;-76
2022/02/14 06:56:59;;;;;;;4.97;1.10;;;28.60;90.40;;;;;;4991143;28;20435;-77
2022/02/14 06:59:27;;;;;;;3.35;0.90;;;28.60;90.30;;;;;;4991058;28;20034;-76
2022/02/14 07:01:55;;;;;;;11.95;2.58;;;28.60;90.60;;;;;;4992359;28;20501;-76
2022/02/14 07:04:22;;;;;;;11.40;2.08;;;28.70;90.70;;;;;;4991121;28;20125;-78
2022/02/14 07:06:50;;;;;;;17.17;1.52;;;28.70;90.70;;;;;;4988071;28;20031;-77
2022/02/14 07:09:17;;;;;;;5.68;0.95;;;28.70;90.80;;;;;;4982926;28;20033;-75
2022/02/14 07:11:45;;;;;;;6.68;0.85;;;28.60;90.80;;;;;;4985643;28;20172;-75
2022/02/14 07:14:13;;;;;;;5.82;1.02;;;28.50;90.90;;;;;;4986321;28;20098;-75
2022/02/14 07:16:43;;;;;;;8.93;1.63;;;28.40;91.10;;;;;;4982782;28;20027;-74
2022/02/14 07:19:11;;;;;;;5.18;1.20;;;28.30;91.20;;;;;;4986214;28;20137;-76
2022/02/14 07:21:38;;;;;;;7.68;0.70;;;28.20;91.40;;;;;;4979137;28;20501;-75
2022/02/14 07:24:07;;;;;;;7.10;1.52;;;28.00;91.50;;;;;;4990584;28;20042;-74
2022/02/14 07:26:34;;;;;;;10.30;1.20;;;27.90;91.60;;;;;;4991283;28;20045;-74
2022/02/14 07:29:01;;;;;;;3.70;0.90;;;27.80;91.80;;;;;;4988733;28;20060;-75
2022/02/14 07:31:29;;;;;;;10.80;1.45;;;27.80;91.80;;;;;;4993353;28;20026;-74
2022/02/14 07:33:56;;;;;;;5.45;1.30;;;27.80;91.80;;;;;;4979070;28;20038;-73
2022/02/14 07:36:25;;;;;;;3.63;1.25;;;27.70;91.80;;;;;;4990816;28;20073;-73
2022/02/14 07:38:53;;;;;;;9.88;1.77;;;27.60;91.70;;;;;;4988580;28;20049;-76
2022/02/14 07:41:21;;;;;;;5.95;0.80;;;27.50;91.70;;;;;;4991942;28;20042;-75
2022/02/14 07:43:48;;;;;;;6.38;0.75;;;27.40;91.90;;;;;;4990150;28;20031;-74
2022/02/14 07:46:17;;;;;;;8.48;1.30;;;27.30;91.90;;;;;;4991326;28;20452;-75
2022/02/14 07:48:46;;;;;;;9.90;2.42;;;27.20;91.80;;;;;;4977645;28;20029;-75
2022/02/14 07:51:18;;;;;;;3.10;0.88;;;27.00;92.00;;;;;;4974544;28;20062;-75
2022/02/14 07:53:46;;;;;;;6.00;1.17;;;27.00;92.10;;;;;;4985228;28;20125;-75
2022/02/14 07:56:14;;;;;;;8.32;0.82;;;27.00;92.00;;;;;;4992580;28;20022;-74
2022/02/14 07:58:43;;;;;;;8.90;1.63;;;26.90;92.20;;;;;;4987123;28;20034;-73
2022/02/14 08:01:10;;;;;;;6.65;0.93;;;26.80;92.10;;;;;;4992736;28;20028;-75
2022/02/14 08:03:38;;;;;;;10.40;1.15;;;26.60;92.20;;;;;;4990581;28;20022;-75
2022/02/14 08:06:06;;;;;;;5.30;2.28;;;26.60;92.40;;;;;;4992137;28;20486;-75
2022/02/14 08:08:33;;;;;;;7.03;0.98;;;26.50;92.70;;;;;;4988091;28;20433;-75
2022/02/14 08:11:00;;;;;;;5.22;1.55;;;26.40;92.90;;;;;;4975874;28;20441;-75
2022/02/14 08:13:27;;;;;;;8.13;1.83;;;26.30;92.90;;;;;;4980868;28;20057;-74
2022/02/14 08:15:55;;;;;;;3.13;0.40;;;26.20;93.10;;;;;;4981365;28;20078;-74
2022/02/14 08:18:22;;;;;;;8.18;0.90;;;26.10;93.10;;;;;;4981483;28;20061;-73
2022/02/14 08:20:50;;;;;;;4.53;0.80;;;26.00;93.20;;;;;;4991589;28;20036;-76
2022/02/14 08:23:17;;;;;;;7.40;1.25;;;25.80;93.50;;;;;;4975410;28;20031;-76
2022/02/14 08:25:44;;;;;;;7.53;2.38;;;25.60;93.80;;;;;;4980084;28;20460;-74
2022/02/14 08:28:11;;;;;;;6.20;0.93;;;25.50;94.20;;;;;;4987318;28;20140;-76
2022/02/14 08:30:39;;;;;;;7.85;1.52;;;25.30;94.50;;;;;;4990749;28;20109;-75
2022/02/14 08:33:07;;;;;;;8.38;1.55;;;25.20;94.80;;;;;;4983494;28;20041;-73
2022/02/14 08:35:34;;;;;;;8.85;1.05;;;25.20;95.00;;;;;;4970312;28;20042;-74
2022/02/14 08:38:01;;;;;;;9.90;1.50;;;25.00;95.10;;;;;;4988436;28;20053;-75
2022/02/14 08:40:29;;;;;;;12.70;1.98;;;24.90;95.60;;;;;;4988600;28;20029;-73
2022/02/14 08:42:58;;;;;;;5.28;1.40;;;24.90;95.50;;;;;;4981168;28;20109;-77
2022/02/14 08:45:26;;;;;;;6.55;1.30;;;24.80;95.50;;;;;;4992572;28;20089;-74
2022/02/14 08:47:53;;;;;;;6.45;1.23;;;24.70;95.60;;;;;;4981835;28;20031;-76
2022/02/14 08:50:20;;;;;;;7.47;1.75;;;24.60;95.80;;;;;;4990290;28;20037;-76
2022/02/14 08:52:48;;;;;;;6.85;1.80;;;24.70;95.90;;;;;;4987426;28;20046;-77
2022/02/14 08:55:17;;;;;;;9.00;1.35;;;24.60;96.00;;;;;;4991280;28;20116;-77
2022/02/14 08:57:45;;;;;;;7.30;0.95;;;24.60;96.10;;;;;;4985832;28;20477;-75
2022/02/14 09:00:14;;;;;;;6.65;1.63;;;24.50;96.20;;;;;;4991256;28;20109;-77
2022/02/14 09:02:41;;;;;;;6.18;0.77;;;24.50;96.40;;;;;;4989934;28;20030;-76
2022/02/14 09:05:08;;;;;;;4.85;1.00;;;24.50;96.60;;;;;;4991955;28;20049;-76
2022/02/14 09:07:36;;;;;;;11.13;1.38;;;24.40;96.70;;;;;;4986620;28;20092;-78
2022/02/14 09:10:05;;;;;;;6.18;0.82;;;24.40;96.80;;;;;;4988311;28;20124;-79
2022/02/14 09:12:32;;;;;;;7.72;1.40;;;24.30;97.00;;;;;;4955819;28;20033;-77
2022/02/14 09:15:00;;;;;;;7.07;0.90;;;24.10;97.10;;;;;;4976113;28;20450;-76
2022/02/14 09:17:28;;;;;;;4.35;0.93;;;24.10;97.30;;;;;;4978175;28;20141;-75
2022/02/14 09:19:55;;;;;;;7.45;1.83;;;24.10;97.40;;;;;;4991307;28;20022;-77
2022/02/14 09:22:23;;;;;;;7.93;1.17;;;24.10;97.50;;;;;;4988159;28;20038;-76
2022/02/14 09:24:50;;;;;;;8.55;1.45;;;24.00;97.60;;;;;;4987738;28;20058;-76
2022/02/14 09:27:17;;;;;;;9.15;1.30;;;24.00;97.60;;;;;;4986883;28;20023;-76
2022/02/14 09:29:45;;;;;;;7.25;0.82;;;24.00;97.70;;;;;;4989670;28;20454;-76
2022/02/14 09:32:12;;;;;;;4.07;1.48;;;23.90;97.80;;;;;;4987412;28;20031;-75
2022/02/14 09:34:40;;;;;;;9.73;1.08;;;23.90;97.90;;;;;;4987991;28;20476;-76
2022/02/14 09:37:10;;;;;;;11.65;1.35;;;23.90;97.90;;;;;;4971659;28;20049;-75
2022/02/14 09:39:38;;;;;;;9.52;1.65;;;23.90;98.00;;;;;;4990777;28;20031;-77
2022/02/14 09:42:07;;;;;;;7.13;1.52;;;23.90;98.10;;;;;;4990621;28;20034;-77
2022/02/14 09:44:34;;;;;;;9.00;2.38;;;23.80;98.20;;;;;;4991454;28;20031;-76
2022/02/14 09:47:04;;;;;;;6.53;1.23;;;23.80;98.10;;;;;;4985004;28;20027;-78
2022/02/14 09:49:32;;;;;;;11.60;2.13;;;23.80;98.20;;;;;;4991402;28;20026;-76
2022/02/14 09:51:59;;;;;;;7.15;1.88;;;23.80;98.40;;;;;;4991203;28;20489;-76
2022/02/14 09:54:26;;;;;;;9.00;1.73;;;23.80;98.30;;;;;;4990119;28;20038;-77
2022/02/14 09:56:54;;;;;;;7.25;1.23;;;23.80;98.40;;;;;;4989787;28;20038;-75
2022/02/14 09:59:23;;;;;;;7.50;1.75;;;23.70;98.30;;;;;;4984925;28;20042;-77
2022/02/14 10:01:50;;;;;;;11.40;1.48;;;23.70;98.30;;;;;;4976068;28;20166;-76
2022/02/14 10:04:18;;;;;;;8.15;1.45;;;23.60;98.50;;;;;;4984096;28;20081;-77
2022/02/14 10:06:45;;;;;;;11.25;1.23;;;23.60;98.40;;;;;;4975821;28;20481;-76
2022/02/14 10:09:19;;;;;;;9.73;1.10;;;23.60;98.50;;;;;;4992903;28;20137;-77
2022/02/14 10:12:12;;;;;;;8.75;1.38;;;23.60;98.60;;;;;;4984662;28;20057;-77
2022/02/14 10:14:40;;;;;;;7.07;1.05;;;23.60;98.70;;;;;;4978369;28;20180;-76
2022/02/14 10:17:07;;;;;;;12.20;1.63;;;23.50;98.80;;;;;;4961475;28;20065;-76
2022/02/14 10:19:56;;;;;;;13.80;1.92;;;23.40;98.70;;;;;;4995123;28;20046;-77
2022/02/14 10:22:23;;;;;;;5.78;1.25;;;23.40;98.90;;;;;;4994136;28;20098;-75
2022/02/14 10:24:51;;;;;;;6.60;0.77;;;23.40;99.00;;;;;;4983714;28;20132;-77
2022/02/14 10:27:29;;;;;;;5.72;0.77;;;23.30;99.10;;;;;;4975695;28;20076;-76
2022/02/14 10:30:10;;;;;;;6.22;1.23;;;23.30;99.20;;;;;;4983828;28;20086;-78
2022/02/14 10:32:58;;;;;;;8.23;1.45;;;23.30;99.30;;;;;;4981840;28;20528;-77
2022/02/14 10:35:27;;;;;;;5.20;1.10;;;23.20;99.40;;;;;;4993340;28;20022;-77
2022/02/14 10:37:54;;;;;;;6.72;1.38;;;23.20;99.50;;;;;;4990376;28;20054;-77
2022/02/14 10:40:36;;;;;;;8.60;0.95;;;23.20;99.70;;;;;;4994396;28;20117;-77
2022/02/14 10:43:03;;;;;;;10.80;2.42;;;23.10;99.70;;;;;;4992807;28;20031;-77
2022/02/14 10:45:30;;;;;;;11.57;2.10;;;23.10;99.90;;;;;;4993289;28;20089;-76
2022/02/14 10:48:09;;;;;;;6.10;1.45;;;23.00;99.90;;;;;;4989516;28;20023;-77
2022/02/14 10:50:36;;;;;;;6.00;0.95;;;23.00;99.90;;;;;;4991702;28;20537;-76
2022/02/14 10:53:04;;;;;;;7.47;0.90;;;22.90;99.90;;;;;;4990182;28;20080;-76
2022/02/14 10:55:42;;;;;;;6.45;1.73;;;22.90;99.90;;;;;;4993780;28;20095;-78
2022/02/14 10:58:10;;;;;;;9.50;1.73;;;22.90;99.90;;;;;;4989677;28;20033;-77
2022/02/14 11:00:39;;;;;;;6.68;1.30;;;22.90;99.90;;;;;;4988113;28;20466;-76
2022/02/14 11:03:08;;;;;;;15.05;2.35;;;22.80;99.90;;;;;;4993230;28;20614;-77
2022/02/14 11:05:38;;;;;;;7.72;1.73;;;22.80;99.90;;;;;;4984081;28;20047;-76
2022/02/14 11:08:08;;;;;;;8.50;1.42;;;22.70;99.90;;;;;;4986811;28;20030;-76
2022/02/14 11:10:37;;;;;;;3.63;0.90;;;22.70;99.90;;;;;;4992595;28;20022;-77
2022/02/14 11:13:06;;;;;;;7.18;1.23;;;22.60;99.90;;;;;;4981302;28;20398;-76
2022/02/14 11:15:35;;;;;;;4.68;1.67;;;22.60;99.90;;;;;;4984126;28;20104;-76
2022/02/14 11:18:12;;;;;;;7.88;0.98;;;22.50;99.90;;;;;;4989347;28;20030;-77
2022/02/14 11:20:41;;;;;;;6.63;1.90;;;22.50;99.90;;;;;;4994104;28;20406;-77
2022/02/14 11:23:11;;;;;;;6.82;1.40;;;22.50;99.90;;;;;;4991827;28;20018;-76
2022/02/14 11:25:41;;;;;;;4.97;0.82;;;22.40;99.90;;;;;;4992821;28;20030;-77
2022/02/14 11:28:36;;;;;;;8.02;1.50;;;22.40;99.90;;;;;;4984835;28;20110;-76
2022/02/14 11:31:09;;;;;;;9.70;1.15;;;22.30;99.90;;;;;;4974889;28;20391;-74
2022/02/14 11:34:02;;;;;;;6.63;1.17;;;22.30;99.90;;;;;;4984549;28;20030;-76
2022/02/14 11:36:43;;;;;;;6.28;1.63;;;22.30;99.90;;;;;;4981077;28;20042;-75
2022/02/14 11:39:11;;;;;;;3.70;1.00;;;22.20;99.90;;;;;;4979799;28;20117;-77
2022/02/14 11:41:42;;;;;;;7.63;1.08;;;22.20;99.90;;;;;;4985208;28;20038;-75
2022/02/14 11:44:17;;;;;;;6.97;1.13;;;22.20;99.90;;;;;;4990828;28;20030;-77
2022/02/14 11:46:46;;;;;;;10.73;3.45;;;22.10;99.90;;;;;;4985604;28;20074;-77
2022/02/14 11:49:19;;;;;;;8.68;1.40;;;22.10;99.90;;;;;;4977564;28;20411;-76
2022/02/14 11:51:58;;;;;;;13.82;1.88;;;22.10;99.90;;;;;;4973011;28;20638;-76
2022/02/14 11:54:50;;;;;;;7.78;1.25;;;22.10;99.90;;;;;;4977396;28;20046;-77
2022/02/14 11:57:32;;;;;;;11.15;1.30;;;22.10;99.90;;;;;;4978275;28;20102;-79
2022/02/14 12:00:23;;;;;;;9.68;1.42;;;22.10;99.90;;;;;;4989696;28;20040;-77
2022/02/14 12:03:13;;;;;;;5.88;1.42;;;22.10;99.90;;;;;;4977185;28;20133;-76
2022/02/14 12:05:47;;;;;;;9.15;1.08;;;22.10;99.90;;;;;;4991413;28;20050;-78
2022/02/14 12:08:16;;;;;;;8.82;1.60;;;22.00;99.90;;;;;;4985715;28;20031;-74
2022/02/14 12:10:48;;;;;;;8.10;0.98;;;22.00;99.90;;;;;;4983854;28;20054;-78
2022/02/14 12:13:18;;;;;;;5.65;1.20;;;22.00;99.90;;;;;;4986881;28;20462;-77
2022/02/14 12:21:13;;;;;;;8.23;0.93;;;21.90;99.90;;;;;;4987815;28;20421;-76
2022/02/14 12:23:43;;;;;;;9.50;1.30;;;21.90;99.90;;;;;;4980825;28;20022;-78
2022/02/14 12:26:13;;;;;;;10.00;1.38;;;21.90;99.90;;;;;;4978208;28;20046;-78
2022/02/14 12:28:42;;;;;;;6.78;1.00;;;21.90;99.90;;;;;;4986039;28;20033;-78
2022/02/14 12:31:10;;;;;;;9.20;1.63;;;21.90;99.90;;;;;;4990925;28;20030;-77
2022/02/14 12:33:38;;;;;;;14.13;2.17;;;21.90;99.90;;;;;;4985867;28;20496;-80
2022/02/14 12:36:08;;;;;;;13.13;1.30;;;21.80;99.90;;;;;;4985100;28;20477;-76
2022/02/14 12:38:38;;;;;;;6.93;1.02;;;21.80;99.90;;;;;;4983196;28;20109;-77
2022/02/14 12:41:08;;;;;;;10.23;2.05;;;21.70;99.90;;;;;;4990743;28;20038;-75
2022/02/14 12:43:39;;;;;;;9.32;1.20;;;21.70;99.90;;;;;;4989021;28;20156;-76
2022/02/14 12:46:09;;;;;;;7.95;1.38;;;21.70;99.90;;;;;;4988097;28;20050;-77
2022/02/14 12:48:41;;;;;;;12.80;2.70;;;21.60;99.90;;;;;;4985412;28;20388;-77
2022/02/14 12:51:29;;;;;;;10.25;1.40;;;21.60;99.90;;;;;;4983225;28;20034;-78
2022/02/14 12:54:06;;;;;;;7.80;1.40;;;21.50;99.90;;;;;;4978334;28;20031;-77
2022/02/14 12:56:36;;;;;;;8.20;1.85;;;21.40;99.90;;;;;;4981215;28;20100;-77
2022/02/14 12:59:11;;;;;;;4.57;1.08;;;21.40;99.90;;;;;;4986240;28;20094;-78